Time;durP1;ratioP1;P1;durP2;ratioP2;P2;SDS_P1;SDS_P2;PMS_P1;PMS_P2;Temp;Humidity;BMP_temperature;BMP_pressure;BME280_temperature;BME280_humidity;BME280_pressure;Samples;Min_cycle;Max_cycle;Signal;HPM_P1;HPM_P2
2022/03/27 00:02:19;;;;;;;93.30;23.68;;;;;;;3.11;59.42;101824.91;739156;1155;115523;-71
2022/03/27 00:17:22;;;;;;;31.97;10.40;;;;;;;2.97;59.47;101846.94;740158;1155;115329;-72
2022/03/27 00:32:24;;;;;;;32.98;9.15;;;;;;;3.05;59.58;101851.88;739221;1155;115368;-71
2022/03/27 00:47:27;;;;;;;16.33;5.48;;;;;;;2.92;60.68;101845.39;740344;1153;115568;-72
2022/03/27 01:02:29;;;;;;;22.95;7.98;;;;;;;2.65;60.50;101842.72;739137;1155;114409;-71
2022/03/27 01:17:33;;;;;;;17.83;6.50;;;;;;;2.62;61.33;101848.84;738729;1155;115522;-71
2022/03/27 01:32:35;;;;;;;15.38;6.18;;;;;;;2.62;61.22;101854.03;738765;1155;115110;-71
2022/03/27 01:47:38;;;;;;;10.83;4.70;;;;;;;2.55;61.62;101865.48;739071;1154;114522;-71
2022/03/27 02:02:41;;;;;;;25.70;6.63;;;;;;;2.42;61.24;101872.75;739223;1155;115114;-71
2022/03/27 02:17:44;;;;;;;10.13;4.00;;;;;;;2.26;61.70;101889.63;738986;1155;114377;-71
2022/03/27 02:32:47;;;;;;;13.45;4.35;;;;;;;2.06;62.17;101891.02;738764;1155;114478;-71
2022/03/27 02:47:50;;;;;;;8.70;3.60;;;;;;;2.11;61.93;101898.64;738841;1155;115157;-71
2022/03/27 03:02:53;;;;;;;12.25;3.90;;;;;;;2.08;62.72;101914.27;739009;1155;114958;-71
2022/03/27 03:17:57;;;;;;;6.43;2.70;;;;;;;1.82;63.18;101923.55;739196;1154;115568;-71
2022/03/27 03:32:59;;;;;;;9.60;3.63;;;;;;;1.74;63.10;101922.89;740513;1155;115300;-72
2022/03/27 03:48:03;;;;;;;12.13;4.45;;;;;;;1.68;63.40;101930.80;740260;1155;115281;-71
2022/03/27 04:03:07;;;;;;;10.63;3.40;;;;;;;1.61;63.78;101932.69;740688;1155;115170;-71
2022/03/27 04:18:11;;;;;;;7.58;3.60;;;;;;;1.31;64.42;101942.89;738839;1155;115241;-71
2022/03/27 04:33:13;;;;;;;15.95;5.30;;;;;;;1.37;63.90;101973.76;739103;1155;115165;-70
2022/03/27 04:48:15;;;;;;;17.57;7.77;;;;;;;1.34;64.38;101973.84;739202;1154;115646;-70
2022/03/27 05:03:17;;;;;;;14.75;6.60;;;;;;;1.49;64.02;101983.84;739192;1155;115265;-72
2022/03/27 05:18:21;;;;;;;11.45;5.18;;;;;;;1.24;65.08;102003.36;739163;1155;115393;-72
2022/03/27 05:33:23;;;;;;;10.15;5.10;;;;;;;1.84;65.28;102027.89;739721;1155;115446;-72
2022/03/27 05:48:25;;;;;;;16.80;5.45;;;;;;;2.37;64.87;102042.98;739336;1154;114706;-75
2022/03/27 06:03:27;;;;;;;15.43;7.45;;;;;;;3.08;64.69;102048.03;740156;1155;115038;-77
2022/03/27 06:18:30;;;;;;;18.98;7.03;;;;;;;3.91;63.96;102061.09;740412;1155;114328;-77
2022/03/27 06:33:32;;;;;;;14.30;4.93;;;;;;;5.18;64.16;102068.94;740322;1155;115577;-79
2022/03/27 06:48:34;;;;;;;16.53;7.70;;;;;;;6.34;63.63;102086.14;740188;1154;114284;-75
2022/03/27 07:03:36;;;;;;;9.55;3.63;;;;;;;6.92;61.50;102076.74;739901;1155;115431;-77
2022/03/27 07:18:39;;;;;;;6.37;3.03;;;;;;;7.12;59.54;102074.08;740408;1155;115113;-79
2022/03/27 07:33:42;;;;;;;12.85;4.98;;;;;;;7.79;58.43;102068.42;741166;1155;115604;-71
2022/03/27 07:48:44;;;;;;;5.45;2.68;;;;;;;8.76;54.18;102067.99;740207;1155;115083;-73
2022/03/27 08:03:46;;;;;;;6.35;3.38;;;;;;;9.17;52.58;102078.05;739422;1155;113866;-72
2022/03/27 08:18:49;;;;;;;4.70;2.63;;;;;;;9.53;51.14;102084.85;739469;1155;115224;-75
2022/03/27 08:33:51;;;;;;;4.93;2.80;;;;;;;10.67;49.20;102077.50;739897;1155;113847;-73
2022/03/27 08:48:58;;;;;;;10.03;3.20;;;;;;;11.32;48.18;102055.14;739592;1155;114666;-74
2022/03/27 09:04:02;;;;;;;8.97;3.70;;;;;;;11.91;47.13;102036.45;740375;1155;114153;-76
2022/03/27 09:19:04;;;;;;;57.28;21.90;;;;;;;12.63;45.20;102037.85;739821;1155;115026;-76
2022/03/27 09:34:07;;;;;;;8.80;3.87;;;;;;;13.78;43.85;102030.60;739838;1155;114502;-76
2022/03/27 09:49:10;;;;;;;7.35;2.50;;;;;;;13.15;40.91;102013.09;740211;1155;114536;-75
2022/03/27 10:04:14;;;;;;;5.53;2.88;;;;;;;15.10;41.23;101997.65;739917;1154;114062;-75
2022/03/27 10:19:34;;;;;;;10.47;4.30;;;;;;;14.37;38.55;101968.11;740045;1155;114849;-75
2022/03/27 10:34:56;;;;;;;5.05;2.18;;;;;;;14.42;38.37;101944.84;739666;1154;114205;-75
2022/03/27 10:50:06;;;;;;;17.73;9.10;;;;;;;13.57;36.24;101932.83;739955;1154;114537;-76
2022/03/27 11:05:37;;;;;;;15.63;8.57;;;;;;;14.26;36.31;101914.34;740443;1154;114992;-76
2022/03/27 11:20:47;;;;;;;7.35;2.93;;;;;;;13.92;36.71;101902.93;740382;1155;115333;-76
2022/03/27 11:36:11;;;;;;;;;;;;;;;13.33;35.84;101878.31;740829;1154;115150;-77
2022/03/27 11:51:16;;;;;;;19.38;13.20;;;;;;;12.72;37.13;101868.70;739466;1155;101576;-76
2022/03/27 12:06:29;;;;;;;5.43;3.00;;;;;;;12.62;37.05;101836.08;739744;1155;115436;-73
2022/03/27 12:21:31;;;;;;;9.47;5.07;;;;;;;12.77;37.05;101808.61;740449;1154;114917;-74
2022/03/27 12:37:10;;;;;;;19.68;6.55;;;;;;;13.87;37.62;101789.88;739859;1155;114723;-74
2022/03/27 12:52:14;;;;;;;9.55;4.68;;;;;;;15.19;37.22;101748.44;740215;1155;115136;-75
2022/03/27 13:07:18;;;;;;;6.35;2.85;;;;;;;14.97;36.08;101734.38;739343;1154;114547;-77
2022/03/27 13:22:21;;;;;;;10.50;3.63;;;;;;;15.40;35.44;101724.62;739835;1154;114980;-77
2022/03/27 13:37:24;;;;;;;21.38;7.95;;;;;;;14.87;36.21;101693.83;740249;1155;115452;-76
2022/03/27 13:52:27;;;;;;;8.37;3.70;;;;;;;15.16;36.83;101676.48;743227;1155;114264;-78
2022/03/27 14:07:29;;;;;;;14.63;4.30;;;;;;;14.17;37.07;101645.06;740675;1154;115489;-85
2022/03/27 14:22:34;;;;;;;8.10;3.15;;;;;;;14.70;37.52;101605.47;740606;1155;115846;-80
2022/03/27 14:37:36;;;;;;;9.20;3.80;;;;;;;15.68;36.52;101584.67;739725;1155;115361;-83
2022/03/27 14:52:40;;;;;;;18.67;3.80;;;;;;;14.54;36.84;101554.88;739571;1153;114151;-83
2022/03/27 15:07:42;;;;;;;15.25;6.65;;;;;;;15.55;37.49;101524.09;740613;1154;115411;-74
2022/03/27 15:22:47;;;;;;;21.63;8.88;;;;;;;20.54;34.69;101509.89;739973;1155;115908;-73
2022/03/27 15:37:52;;;;;;;22.18;6.60;;;;;;;16.47;35.26;101490.19;739944;1154;115478;-74
2022/03/27 15:52:55;;;;;;;332.40;289.93;;;;;;;15.45;36.25;101459.78;740108;1155;115918;-79
2022/03/27 16:07:57;;;;;;;15.53;12.00;;;;;;;14.64;37.14;101437.80;740015;1155;115415;-80
2022/03/27 16:23:00;;;;;;;153.83;59.93;;;;;;;13.70;38.99;101413.24;740521;1155;114828;-79
2022/03/27 16:38:03;;;;;;;25.33;11.33;;;;;;;12.70;39.03;101385.32;740085;1155;115980;-72
2022/03/27 16:53:07;;;;;;;22.33;11.07;;;;;;;12.42;40.18;101372.55;740349;1154;114815;-75
2022/03/27 17:08:09;;;;;;;9.75;5.85;;;;;;;12.12;40.68;101365.25;740518;1155;116047;-73
2022/03/27 17:23:13;;;;;;;15.78;4.58;;;;;;;11.78;41.19;101334.45;740204;1155;115614;-74
2022/03/27 17:38:15;;;;;;;12.10;5.53;;;;;;;11.52;41.85;101312.81;740137;1155;114034;-74
2022/03/27 17:53:18;;;;;;;24.93;7.63;;;;;;;11.11;41.78;101279.96;740580;1155;114513;-84
2022/03/27 18:08:23;;;;;;;32.25;7.08;;;;;;;10.78;42.66;101274.48;741117;1155;115617;-86
2022/03/27 18:23:27;;;;;;;19.25;5.93;;;;;;;10.62;43.08;101271.29;741100;1155;114153;-85
2022/03/27 18:38:30;;;;;;;11.73;5.20;;;;;;;10.38;43.69;101261.62;741394;1154;114620;-85
2022/03/27 18:53:33;;;;;;;14.13;6.33;;;;;;;10.19;44.25;101240.23;740543;1155;114156;-79
2022/03/27 19:08:37;;;;;;;32.15;13.60;;;;;;;10.14;44.87;101235.34;741373;1154;114192;-90
2022/03/27 19:23:40;;;;;;;35.35;12.58;;;;;;;10.05;44.65;101218.47;741320;1155;115040;-90
2022/03/27 19:38:42;;;;;;;42.20;18.40;;;;;;;10.25;45.06;101214.41;741409;1155;114894;-75
2022/03/27 19:53:45;;;;;;;29.13;9.73;;;;;;;10.34;44.74;101207.67;740758;1154;114297;-75
2022/03/27 20:08:48;;;;;;;31.70;10.60;;;;;;;10.35;45.26;101193.66;740271;1155;114887;-76
2022/03/27 20:23:50;;;;;;;29.28;9.68;;;;;;;10.44;45.79;101192.98;740533;1154;115576;-75
2022/03/27 20:38:52;;;;;;;22.67;8.57;;;;;;;10.48;45.91;101177.86;740621;1155;115303;-75
2022/03/27 20:53:55;;;;;;;17.60;7.10;;;;;;;10.39;46.72;101152.31;740741;1155;115759;-76
2022/03/27 21:08:57;;;;;;;17.35;6.23;;;;;;;10.26;47.32;101115.63;739917;1155;115095;-75
2022/03/27 21:24:00;;;;;;;17.30;6.38;;;;;;;10.17;48.29;101106.63;741145;1155;114549;-74
2022/03/27 21:39:02;;;;;;;13.13;5.70;;;;;;;10.19;49.79;101094.26;739944;1155;115707;-74
2022/03/27 21:54:04;;;;;;;12.97;4.80;;;;;;;10.07;49.54;101085.52;739575;1154;114648;-74
2022/03/27 22:09:07;;;;;;;15.13;6.00;;;;;;;9.95;50.62;101070.66;739653;1155;114925;-74
2022/03/27 22:24:09;;;;;;;15.20;7.40;;;;;;;9.73;51.53;101039.96;739902;1154;113824;-74
2022/03/27 22:39:13;;;;;;;11.43;5.28;;;;;;;9.61;52.39;101033.83;739404;1155;115404;-75
2022/03/27 22:54:15;;;;;;;13.48;6.20;;;;;;;9.57;54.79;101017.48;740099;1155;114257;-75
2022/03/27 23:09:17;;;;;;;15.88;6.60;;;;;;;9.47;54.49;101001.58;739320;1155;114670;-72
2022/03/27 23:24:20;;;;;;;14.15;5.80;;;;;;;9.46;55.70;100992.07;739623;1155;115538;-71
2022/03/27 23:39:22;;;;;;;15.13;7.10;;;;;;;9.39;57.60;100966.44;739660;1155;114521;-73
2022/03/27 23:54:24;;;;;;;10.80;5.67;;;;;;;9.32;57.41;100963.42;739307;1155;115201;-71
